Time;durP1;ratioP1;P1;durP2;ratioP2;P2;SDS_P1;SDS_P2;PMS_P1;PMS_P2;Temp;Humidity;BMP_temperature;BMP_pressure;BME280_temperature;BME280_humidity;BME280_pressure;Samples;Min_cycle;Max_cycle;Signal;HPM_P1;HPM_P2
2021/11/30 00:02:43;;;;;;;;;;;0.30;99.90;;;;;;8349477;28;19931;-65
2021/11/30 00:06:44;;;;;;;;;;;0.30;99.90;;;;;;8358966;28;19912;-64
2021/11/30 00:14:47;;;;;;;;;;;0.20;99.90;;;;;;8358867;28;19995;-64
2021/11/30 00:18:47;;;;;;;;;;;0.20;99.90;;;;;;8340853;28;19913;-64
2021/11/30 00:22:48;;;;;;;;;;;0.10;99.90;;;;;;8358362;28;20289;-64
2021/11/30 00:26:48;;;;;;;;;;;0.20;99.90;;;;;;8358414;28;19909;-64
2021/11/30 00:30:49;;;;;;;;;;;0.20;99.90;;;;;;8357607;28;19916;-64
2021/11/30 00:34:50;;;;;;;;;;;0.20;99.90;;;;;;8357905;28;20402;-64
2021/11/30 00:38:50;;;;;;;;;;;0.30;99.90;;;;;;8358177;28;19912;-65
2021/11/30 00:42:51;;;;;;;;;;;0.30;99.90;;;;;;8357844;28;20294;-65
2021/11/30 00:46:54;;;;;;;;;;;0.30;99.90;;;;;;8364190;28;19909;-64
2021/11/30 00:50:54;;;;;;;;;;;0.40;99.90;;;;;;8363459;28;19923;-64
2021/11/30 00:54:55;;;;;;;;;;;0.40;99.90;;;;;;8345347;28;20007;-64
2021/11/30 00:58:55;;;;;;;;;;;0.40;99.90;;;;;;8363565;28;19909;-64
2021/11/30 01:02:56;;;;;;;;;;;0.40;99.90;;;;;;8354089;28;20400;-64
2021/11/30 01:11:35;;;;;;;;;;;0.50;99.90;;;;;;8353901;28;20070;-64
2021/11/30 01:15:37;;;;;;;;;;;0.50;99.90;;;;;;8350794;28;19917;-64
2021/11/30 01:19:38;;;;;;;;;;;0.60;99.90;;;;;;8309059;28;20375;-64
2021/11/30 01:23:38;;;;;;;;;;;0.50;99.90;;;;;;8329582;28;20186;-64
2021/11/30 01:32:17;;;;;;;;;;;0.40;99.90;;;;;;8349999;28;19924;-65
2021/11/30 01:36:18;;;;;;;;;;;0.50;99.90;;;;;;8353989;28;20331;-64
2021/11/30 01:40:20;;;;;;;;;;;0.40;99.90;;;;;;8343424;28;20004;-64
2021/11/30 01:45:06;;;;;;;;;;;0.40;99.90;;;;;;8329251;28;20393;-65
2021/11/30 01:53:04;;;;;;;;;;;0.50;99.90;;;;;;8328132;28;20386;-64
2021/11/30 01:57:06;;;;;;;;;;;0.40;99.90;;;;;;8327641;28;20360;-64
2021/11/30 02:01:07;;;;;;;;;;;0.40;99.90;;;;;;8328456;28;19916;-64
2021/11/30 02:05:07;;;;;;;;;;;0.40;99.90;;;;;;8337581;28;20006;-64
2021/11/30 02:09:08;;;;;;;;;;;0.40;99.90;;;;;;8352730;28;19908;-65
2021/11/30 02:13:09;;;;;;;;;;;0.40;99.90;;;;;;8361236;28;20397;-64
2021/11/30 02:17:10;;;;;;;;;;;0.40;99.90;;;;;;8361184;28;19913;-65
2021/11/30 02:21:11;;;;;;;;;;;0.40;99.90;;;;;;8360987;28;19916;-65
2021/11/30 02:25:12;;;;;;;;;;;0.30;99.90;;;;;;8360997;28;19968;-64
2021/11/30 02:29:12;;;;;;;;;;;0.40;99.90;;;;;;8360935;28;20005;-64
2021/11/30 02:33:13;;;;;;;;;;;0.40;99.90;;;;;;8360265;28;20487;-64
2021/11/30 02:37:14;;;;;;;;;;;0.40;99.90;;;;;;8331816;28;20387;-64
2021/11/30 02:41:15;;;;;;;;;;;0.40;99.90;;;;;;8309774;28;19919;-64
2021/11/30 02:45:15;;;;;;;;;;;0.50;99.90;;;;;;8327500;28;19913;-64
2021/11/30 02:49:17;;;;;;;;;;;0.50;99.90;;;;;;8327418;28;19940;-64
2021/11/30 02:53:21;;;;;;;;;;;0.60;99.90;;;;;;8326671;28;20371;-64
2021/11/30 02:57:22;;;;;;;;;;;0.50;99.90;;;;;;8327214;28;20045;-64
2021/11/30 03:01:23;;;;;;;;;;;0.50;99.90;;;;;;8327101;28;19956;-64
2021/11/30 03:05:23;;;;;;;;;;;0.50;99.90;;;;;;8336357;28;19913;-64
2021/11/30 03:09:24;;;;;;;;;;;0.40;99.90;;;;;;8352994;28;19935;-64
2021/11/30 03:18:03;;;;;;;;;;;0.30;99.90;;;;;;8344825;28;19916;-64
2021/11/30 03:22:04;;;;;;;;;;;0.40;99.90;;;;;;8323255;28;20264;-65
2021/11/30 03:26:04;;;;;;;;;;;0.40;99.90;;;;;;8309882;28;19913;-65
2021/11/30 03:30:07;;;;;;;;;;;0.40;99.90;;;;;;8326813;28;19932;-65
2021/11/30 03:34:14;;;;;;;;;;;0.60;99.90;;;;;;8326897;28;20012;-65
2021/11/30 03:38:14;;;;;;;;;;;0.50;99.90;;;;;;8326615;28;19916;-64
2021/11/30 03:42:15;;;;;;;;;;;0.50;99.90;;;;;;8307902;28;19913;-64
2021/11/30 03:46:15;;;;;;;;;;;0.50;99.90;;;;;;8325904;28;19985;-64
2021/11/30 03:50:16;;;;;;;;;;;0.60;99.90;;;;;;8315909;28;19921;-65
2021/11/30 03:59:31;;;;;;;;;;;0.50;99.90;;;;;;8339963;28;19916;-65
2021/11/30 04:03:34;;;;;;;;;;;0.50;99.90;;;;;;8344386;28;19943;-65
2021/11/30 04:07:34;;;;;;;;;;;0.60;99.90;;;;;;8349897;28;19980;-65
2021/11/30 04:11:35;;;;;;;;;;;0.60;99.90;;;;;;8358340;28;19916;-65
2021/11/30 04:15:35;;;;;;;;;;;0.50;99.90;;;;;;8358694;28;19913;-64
2021/11/30 04:19:36;;;;;;;;;;;0.50;99.90;;;;;;8360993;28;19909;-65
2021/11/30 04:23:36;;;;;;;;;;;0.60;99.90;;;;;;8364459;28;19963;-65
2021/11/30 04:27:37;;;;;;;;;;;0.60;99.90;;;;;;8364633;28;20290;-64
2021/11/30 04:31:38;;;;;;;;;;;0.60;99.90;;;;;;8358568;28;20519;-65
2021/11/30 04:35:38;;;;;;;;;;;0.60;99.90;;;;;;8328489;28;19914;-64
2021/11/30 04:39:39;;;;;;;;;;;0.50;99.90;;;;;;8317978;28;20003;-65
2021/11/30 04:43:39;;;;;;;;;;;0.40;99.90;;;;;;8346537;28;20227;-65
2021/11/30 04:51:43;;;;;;;;;;;0.50;99.90;;;;;;8312561;28;19929;-65
2021/11/30 04:55:44;;;;;;;;;;;0.40;99.90;;;;;;8317370;28;19983;-65
2021/11/30 05:09:02;;;;;;;;;;;0.40;99.90;;;;;;8308481;28;19974;-66
2021/11/30 05:13:02;;;;;;;;;;;0.50;99.90;;;;;;8297976;28;20272;-66
2021/11/30 05:17:03;;;;;;;;;;;0.50;99.90;;;;;;8293040;28;19906;-66
2021/11/30 05:21:04;;;;;;;;;;;0.50;99.90;;;;;;8297830;28;19959;-65
2021/11/30 05:25:06;;;;;;;;;;;0.50;99.90;;;;;;8295969;28;19918;-65
2021/11/30 05:29:07;;;;;;;;;;;0.50;99.90;;;;;;8295578;28;20055;-66
2021/11/30 05:33:15;;;;;;;;;;;0.50;99.90;;;;;;8312003;28;19898;-66
2021/11/30 05:37:17;;;;;;;;;;;0.40;99.90;;;;;;8298506;28;19924;-65
2021/11/30 05:41:17;;;;;;;;;;;0.50;99.90;;;;;;8296179;28;19917;-66
2021/11/30 05:45:18;;;;;;;;;;;0.40;99.90;;;;;;8299386;28;20282;-66
2021/11/30 05:49:18;;;;;;;;;;;0.50;99.90;;;;;;8303051;28;19917;-66
2021/11/30 05:53:19;;;;;;;;;;;0.40;99.90;;;;;;8306584;28;19914;-66
2021/11/30 05:57:22;;;;;;;;;;;0.40;99.90;;;;;;8290360;28;20012;-65
2021/11/30 06:05:26;;;;;;;;;;;0.40;99.90;;;;;;8312136;28;20038;-65
2021/11/30 06:09:27;;;;;;;;;;;0.50;99.90;;;;;;8320209;28;19913;-67
2021/11/30 06:13:28;;;;;;;;;;;0.40;99.90;;;;;;8295017;28;19914;-68
2021/11/30 06:17:28;;;;;;;;;;;0.50;99.90;;;;;;8299893;28;20380;-68
2021/11/30 06:21:28;;;;;;;;;;;0.50;99.90;;;;;;8321492;28;19919;-68
2021/11/30 06:25:29;;;;;;;;;;;0.50;99.90;;;;;;8298915;28;19924;-68
2021/11/30 06:29:29;;;;;;;;;;;0.50;99.90;;;;;;8293984;28;20446;-63
2021/11/30 06:33:30;;;;;;;;;;;0.50;99.90;;;;;;8300587;28;20406;-63
2021/11/30 06:37:30;;;;;;;;;;;0.50;99.90;;;;;;8296833;28;19913;-63
2021/11/30 06:41:31;;;;;;;;;;;0.50;99.90;;;;;;8298482;28;19936;-63
2021/11/30 06:45:31;;;;;;;;;;;0.50;99.90;;;;;;8295014;28;19980;-62
2021/11/30 06:49:32;;;;;;;;;;;0.50;99.90;;;;;;8290676;28;19932;-63
2021/11/30 06:53:34;;;;;;;;;;;0.50;99.90;;;;;;8300834;28;19967;-63
2021/11/30 06:57:37;;;;;;;;;;;0.50;99.90;;;;;;8299334;28;20219;-63
2021/11/30 07:01:38;;;;;;;;;;;0.60;99.90;;;;;;8278816;28;19987;-62
2021/11/30 07:05:41;;;;;;;;;;;0.50;99.90;;;;;;8300765;28;20225;-63
2021/11/30 07:23:55;;;;;;;;;;;0.60;99.90;;;;;;8307720;28;19928;-64
2021/11/30 07:37:12;;;;;;;;;;;0.50;99.90;;;;;;8291410;28;19979;-63
2021/11/30 07:41:12;;;;;;;;;;;0.40;99.90;;;;;;8309141;28;19917;-63
2021/11/30 07:45:14;;;;;;;;;;;0.30;99.90;;;;;;8323770;28;19925;-64
2021/11/30 07:49:14;;;;;;;;;;;0.20;99.90;;;;;;8310153;28;19924;-63
2021/11/30 07:53:15;;;;;;;;;;;0.20;99.90;;;;;;8304605;28;19918;-63
2021/11/30 07:57:15;;;;;;;;;;;0.10;99.90;;;;;;8311951;28;19917;-63
2021/11/30 08:01:16;;;;;;;;;;;0.00;99.90;;;;;;8313546;28;19917;-63
2021/11/30 08:05:17;;;;;;;;;;;0.00;99.90;;;;;;8326029;28;20004;-63
2021/11/30 08:09:17;;;;;;;;;;;0.00;99.90;;;;;;8301877;28;19944;-63
2021/11/30 08:13:18;;;;;;;;;;;0.10;99.90;;;;;;8305441;28;19920;-63
2021/11/30 08:17:19;;;;;;;;;;;0.10;99.90;;;;;;8317725;28;20213;-63
2021/11/30 08:21:20;;;;;;;;;;;0.10;99.90;;;;;;8304838;28;19913;-63
2021/11/30 08:25:20;;;;;;;;;;;0.00;99.90;;;;;;8304600;28;19963;-64
2021/11/30 08:29:22;;;;;;;;;;;-0.10;99.90;;;;;;8304564;28;19913;-63
2021/11/30 08:33:22;;;;;;;;;;;0.00;99.90;;;;;;8309370;28;20006;-63
2021/11/30 08:37:23;;;;;;;;;;;0.00;99.90;;;;;;8303099;28;20245;-63
2021/11/30 08:41:24;;;;;;;;;;;0.00;99.90;;;;;;8308885;28;19914;-63
2021/11/30 08:45:26;;;;;;;;;;;0.00;99.90;;;;;;8312877;28;19921;-64
2021/11/30 08:49:27;;;;;;;;;;;0.00;99.90;;;;;;8311821;28;19921;-63
2021/11/30 08:53:33;;;;;;;;;;;0.00;99.90;;;;;;8313646;28;20004;-63
2021/11/30 08:57:33;;;;;;;;;;;0.00;99.90;;;;;;8308035;28;20466;-64
2021/11/30 09:01:34;;;;;;;;;;;0.10;99.90;;;;;;8300225;28;19909;-63
2021/11/30 09:14:51;;;;;;;;;;;0.10;99.90;;;;;;8281660;28;19976;-63
2021/11/30 09:18:52;;;;;;;;;;;0.10;99.90;;;;;;8296459;28;19914;-63
2021/11/30 09:22:52;;;;;;;;;;;0.10;99.90;;;;;;8308770;28;20182;-63
2021/11/30 09:26:53;;;;;;;;;;;0.20;99.90;;;;;;8314226;28;19921;-63
2021/11/30 09:30:53;;;;;;;;;;;0.10;99.90;;;;;;8326713;28;19913;-63
2021/11/30 09:34:54;;;;;;;;;;;0.10;99.90;;;;;;8312634;28;20009;-63
2021/11/30 09:38:54;;;;;;;;;;;0.20;99.90;;;;;;8309962;28;19918;-63
2021/11/30 09:42:55;;;;;;;;;;;0.10;99.90;;;;;;8296892;28;19952;-63
2021/11/30 09:46:56;;;;;;;;;;;0.20;99.90;;;;;;8296152;28;20368;-63
2021/11/30 09:50:57;;;;;;;;;;;0.20;99.90;;;;;;8295898;28;20372;-63
2021/11/30 09:54:58;;;;;;;;;;;0.20;99.90;;;;;;8321551;28;20356;-63
2021/11/30 09:58:58;;;;;;;;;;;0.30;99.90;;;;;;8323952;28;19914;-63
2021/11/30 10:02:59;;;;;;;;;;;0.50;99.90;;;;;;8294833;28;19909;-63
2021/11/30 10:06:59;;;;;;;;;;;0.50;99.90;;;;;;8292916;28;20026;-63
2021/11/30 10:11:00;;;;;;;;;;;0.40;99.90;;;;;;8295525;28;20347;-63
2021/11/30 10:15:06;;;;;;;;;;;0.30;99.90;;;;;;8292967;28;19910;-63
2021/11/30 10:19:06;;;;;;;;;;;0.30;99.90;;;;;;8292969;28;19916;-63
2021/11/30 10:23:07;;;;;;;;;;;0.40;99.90;;;;;;8293591;28;19909;-63
2021/11/30 10:27:07;;;;;;;;;;;0.30;99.90;;;;;;8295330;28;19917;-63
2021/11/30 10:31:09;;;;;;;;;;;0.40;99.90;;;;;;8307254;28;19964;-63
2021/11/30 10:35:10;;;;;;;;;;;0.50;99.90;;;;;;8298055;28;19944;-63
2021/11/30 10:39:21;;;;;;;;;;;0.60;99.90;;;;;;8294046;28;20379;-63
2021/11/30 10:43:22;;;;;;;;;;;0.60;99.90;;;;;;8297162;28;19921;-63
2021/11/30 10:47:24;;;;;;;;;;;0.60;99.90;;;;;;8301726;28;20027;-63
2021/11/30 11:14:46;;;;;;;;;;;1.20;99.90;;;;;;8281582;28;19968;-64
2021/11/30 11:18:46;;;;;;;;;;;1.40;99.90;;;;;;8306538;28;20048;-63
2021/11/30 11:22:53;;;;;;;;;;;1.60;99.90;;;;;;8305878;28;19921;-64
2021/11/30 11:26:55;;;;;;;;;;;1.40;99.90;;;;;;8307355;28;20446;-64
2021/11/30 11:30:55;;;;;;;;;;;1.50;99.90;;;;;;8287611;28;19914;-64
2021/11/30 11:34:57;;;;;;;;;;;1.70;99.90;;;;;;8292900;28;19917;-64
2021/11/30 11:38:57;;;;;;;;;;;1.70;99.90;;;;;;8294665;28;19936;-64
2021/11/30 11:47:36;;;;;;;;;;;1.50;99.90;;;;;;8295329;28;19929;-65
2021/11/30 11:51:44;;;;;;;;;;;1.60;99.90;;;;;;8291970;28;20012;-64
2021/11/30 11:56:04;;;;;;;;;;;1.60;99.90;;;;;;8324103;28;19917;-63
2021/11/30 12:00:14;;;;;;;;;;;1.60;99.90;;;;;;8300932;28;20000;-64
2021/11/30 12:04:18;;;;;;;;;;;1.70;99.90;;;;;;8305798;28;19917;-64
2021/11/30 12:08:35;;;;;;;;;;;1.70;99.90;;;;;;8307888;28;19913;-64
2021/11/30 12:12:36;;;;;;;;;;;1.80;99.90;;;;;;8303503;28;19910;-64
2021/11/30 12:16:55;;;;;;;;;;;1.90;99.90;;;;;;8302640;28;19916;-64
2021/11/30 12:21:22;;;;;;;;;;;2.00;99.90;;;;;;8302008;28;19956;-64
2021/11/30 12:25:22;;;;;;;;;;;1.80;99.90;;;;;;8301925;28;20342;-64
2021/11/30 12:29:34;;;;;;;;;;;1.90;99.90;;;;;;8306847;28;19993;-64
2021/11/30 12:33:37;;;;;;;;;;;1.80;99.90;;;;;;8303118;28;20360;-64
2021/11/30 12:37:37;;;;;;;;;;;1.80;99.90;;;;;;8307859;28;20279;-64
2021/11/30 12:41:42;;;;;;;;;;;1.70;99.90;;;;;;8308355;28;19916;-64
2021/11/30 12:45:45;;;;;;;;;;;1.80;99.90;;;;;;8306922;28;19913;-64
2021/11/30 12:49:46;;;;;;;;;;;1.90;99.90;;;;;;8307216;28;19917;-64
2021/11/30 12:53:47;;;;;;;;;;;1.90;99.90;;;;;;8307957;28;19913;-64
2021/11/30 12:57:47;;;;;;;;;;;2.00;99.90;;;;;;8313400;28;19910;-64
2021/11/30 13:02:08;;;;;;;;;;;1.90;99.90;;;;;;8302851;28;19916;-64
2021/11/30 13:06:08;;;;;;;;;;;2.00;99.90;;;;;;8306516;28;19921;-64
2021/11/30 13:10:18;;;;;;;;;;;1.80;99.90;;;;;;8307050;28;19913;-64
2021/11/30 13:14:22;;;;;;;;;;;1.80;99.90;;;;;;8302940;28;19951;-64
2021/11/30 13:18:26;;;;;;;;;;;1.80;99.90;;;;;;8309262;28;19913;-64
2021/11/30 13:22:26;;;;;;;;;;;1.80;99.90;;;;;;8302906;28;20376;-64
2021/11/30 13:26:27;;;;;;;;;;;1.70;99.90;;;;;;8302161;28;19920;-64
2021/11/30 13:30:29;;;;;;;;;;;1.70;99.90;;;;;;8313468;28;19921;-64
2021/11/30 13:34:29;;;;;;;;;;;1.50;99.90;;;;;;8311527;28;19963;-64
2021/11/30 13:38:31;;;;;;;;;;;1.40;99.90;;;;;;8309909;28;19913;-65
2021/11/30 13:42:43;;;;;;;;;;;1.40;99.90;;;;;;8311872;28;20384;-65
2021/11/30 13:46:44;;;;;;;;;;;1.30;99.90;;;;;;8310892;28;19925;-66
2021/11/30 13:50:45;;;;;;;;;;;1.30;99.90;;;;;;8308299;28;21050;-65
2021/11/30 13:54:50;;;;;;;;;;;1.30;99.90;;;;;;8309320;28;19918;-65
2021/11/30 13:58:57;;;;;;;;;;;1.30;99.90;;;;;;8307639;28;19920;-65
2021/11/30 14:02:57;;;;;;;;;;;1.30;99.90;;;;;;8306044;28;19920;-65
2021/11/30 14:07:01;;;;;;;;;;;1.30;99.90;;;;;;8311712;28;19913;-65
2021/11/30 14:11:04;;;;;;;;;;;1.20;99.90;;;;;;8310296;28;19971;-65
2021/11/30 14:15:07;;;;;;;;;;;1.30;99.90;;;;;;8300972;28;19995;-65
2021/11/30 14:19:07;;;;;;;;;;;1.20;99.90;;;;;;8293466;28;19913;-64
2021/11/30 14:23:15;;;;;;;;;;;1.20;99.90;;;;;;8293112;28;19963;-64
2021/11/30 14:27:15;;;;;;;;;;;1.10;99.90;;;;;;8294687;28;20007;-65
2021/11/30 14:31:16;;;;;;;;;;;1.10;99.90;;;;;;8297553;28;19968;-64
2021/11/30 14:35:16;;;;;;;;;;;1.10;99.90;;;;;;8305526;28;20000;-64
2021/11/30 14:39:35;;;;;;;;;;;1.20;99.90;;;;;;8294703;28;19910;-64
2021/11/30 14:43:36;;;;;;;;;;;1.20;99.90;;;;;;8293652;28;19963;-63
2021/11/30 14:47:37;;;;;;;;;;;1.20;99.90;;;;;;8294019;28;19910;-64
2021/11/30 14:51:37;;;;;;;;;;;1.20;99.90;;;;;;8307030;28;20269;-64
2021/11/30 14:55:42;;;;;;;;;;;1.30;99.90;;;;;;8284810;28;19920;-64
2021/11/30 14:59:43;;;;;;;;;;;1.30;99.90;;;;;;8293885;28;19913;-64
2021/11/30 15:03:45;;;;;;;;;;;1.40;99.90;;;;;;8292446;28;19947;-64
2021/11/30 15:07:45;;;;;;;;;;;1.30;99.90;;;;;;8293965;28;19944;-64
2021/11/30 15:11:56;;;;;;;;;;;1.30;99.90;;;;;;8292773;28;19918;-64
2021/11/30 15:15:57;;;;;;;;;;;1.30;99.90;;;;;;8293675;28;19967;-63
2021/11/30 15:19:57;;;;;;;;;;;1.20;99.90;;;;;;8304650;28;20241;-64
2021/11/30 15:23:58;;;;;;;;;;;1.20;99.90;;;;;;8313416;28;20292;-65
2021/11/30 15:28:01;;;;;;;;;;;1.20;99.90;;;;;;8293684;28;20169;-64
2021/11/30 15:32:04;;;;;;;;;;;1.30;99.90;;;;;;8293371;28;19925;-64
2021/11/30 15:36:05;;;;;;;;;;;1.30;99.90;;;;;;8293129;28;19914;-65
2021/11/30 15:40:05;;;;;;;;;;;1.30;99.90;;;;;;8313935;28;20303;-65
2021/11/30 15:44:06;;;;;;;;;;;1.40;99.90;;;;;;8312478;28;19917;-64
2021/11/30 15:48:07;;;;;;;;;;;1.40;99.90;;;;;;8304729;28;19921;-64
2021/11/30 15:52:08;;;;;;;;;;;1.50;99.90;;;;;;8309500;28;19995;-64
2021/11/30 16:00:28;;;;;;;;;;;1.60;99.90;;;;;;8295352;28;19928;-64
2021/11/30 16:04:28;;;;;;;;;;;1.60;99.90;;;;;;8293450;28;20265;-64
2021/11/30 16:08:29;;;;;;;;;;;1.60;99.90;;;;;;8293686;28;19910;-64
2021/11/30 16:12:29;;;;;;;;;;;1.60;99.90;;;;;;8293152;28;19910;-64
2021/11/30 16:16:30;;;;;;;;;;;1.60;99.90;;;;;;8297333;28;19910;-64
2021/11/30 16:20:30;;;;;;;;;;;1.60;99.90;;;;;;8294741;28;19910;-64
2021/11/30 16:24:31;;;;;;;;;;;1.60;99.90;;;;;;8296443;28;19921;-64
2021/11/30 16:28:32;;;;;;;;;;;1.60;99.90;;;;;;8308115;28;20375;-64
2021/11/30 16:32:32;;;;;;;;;;;1.70;99.90;;;;;;8309725;28;19920;-64
2021/11/30 16:36:34;;;;;;;;;;;1.70;99.90;;;;;;8313941;28;20702;-64
2021/11/30 16:40:34;;;;;;;;;;;1.80;99.90;;;;;;8313395;28;19964;-64
2021/11/30 16:44:35;;;;;;;;;;;1.80;99.90;;;;;;8312594;28;20269;-65
2021/11/30 16:48:35;;;;;;;;;;;1.80;99.90;;;;;;8315823;28;19921;-65
2021/11/30 16:52:35;;;;;;;;;;;1.80;99.90;;;;;;8312936;28;19920;-67
2021/11/30 16:56:36;;;;;;;;;;;1.80;99.90;;;;;;8310061;28;19930;-66
2021/11/30 17:00:38;;;;;;;;;;;1.80;99.90;;;;;;8310579;28;20004;-66
2021/11/30 17:04:40;;;;;;;;;;;1.70;99.90;;;;;;8312727;28;19959;-66
2021/11/30 17:08:41;;;;;;;;;;;1.70;99.90;;;;;;8299439;28;19927;-66
2021/11/30 17:12:41;;;;;;;;;;;1.70;99.90;;;;;;8326050;28;19933;-65
2021/11/30 17:16:41;;;;;;;;;;;1.70;99.90;;;;;;8314264;28;19910;-65
2021/11/30 17:20:43;;;;;;;;;;;1.70;99.90;;;;;;8312229;28;19916;-66
2021/11/30 17:24:53;;;;;;;;;;;1.70;99.90;;;;;;8312734;28;19975;-65
2021/11/30 17:28:54;;;;;;;;;;;1.70;99.90;;;;;;8308863;28;19917;-66
2021/11/30 17:32:55;;;;;;;;;;;1.60;99.90;;;;;;8324964;28;20804;-66
2021/11/30 17:36:56;;;;;;;;;;;1.50;99.90;;;;;;8312393;28;19917;-65
2021/11/30 17:40:58;;;;;;;;;;;1.60;99.90;;;;;;8306658;28;19913;-66
2021/11/30 17:44:58;;;;;;;;;;;1.60;99.90;;;;;;8304662;28;19929;-66
2021/11/30 17:49:04;;;;;;;;;;;1.60;99.90;;;;;;8311875;28;19924;-66
2021/11/30 17:53:05;;;;;;;;;;;1.60;99.90;;;;;;8312172;28;20410;-66
2021/11/30 17:57:05;;;;;;;;;;;1.60;99.90;;;;;;8310995;28;19909;-66
2021/11/30 18:01:06;;;;;;;;;;;1.70;99.90;;;;;;8304636;28;19920;-66
2021/11/30 18:05:08;;;;;;;;;;;1.70;99.90;;;;;;8290025;28;20106;-67
2021/11/30 18:09:09;;;;;;;;;;;1.60;99.90;;;;;;8302209;28;19916;-66
2021/11/30 18:13:11;;;;;;;;;;;1.70;99.90;;;;;;8294838;28;19909;-66
2021/11/30 18:17:12;;;;;;;;;;;1.70;99.90;;;;;;8295232;28;19913;-67
2021/11/30 18:21:12;;;;;;;;;;;1.70;99.90;;;;;;8295595;28;19972;-67
2021/11/30 18:25:13;;;;;;;;;;;1.60;99.90;;;;;;8293869;28;20354;-67
2021/11/30 18:29:13;;;;;;;;;;;1.50;99.90;;;;;;8292995;28;20319;-67
2021/11/30 18:33:14;;;;;;;;;;;1.40;99.90;;;;;;8293709;28;20004;-67
2021/11/30 18:37:14;;;;;;;;;;;1.40;99.90;;;;;;8293570;28;19914;-67
2021/11/30 18:41:15;;;;;;;;;;;1.50;99.90;;;;;;8293462;28;19917;-67
2021/11/30 18:45:15;;;;;;;;;;;1.60;99.90;;;;;;8294142;28;20176;-67
2021/11/30 18:49:17;;;;;;;;;;;1.70;99.90;;;;;;8293668;28;19964;-66
2021/11/30 18:53:21;;;;;;;;;;;1.70;99.90;;;;;;8293724;28;19920;-66
2021/11/30 18:57:22;;;;;;;;;;;1.80;99.90;;;;;;8294219;28;19909;-66
2021/11/30 19:01:23;;;;;;;;;;;1.80;99.90;;;;;;8298479;28;19939;-67
2021/11/30 19:05:23;;;;;;;;;;;1.90;99.90;;;;;;8291740;28;19921;-66
2021/11/30 19:09:24;;;;;;;;;;;1.90;99.90;;;;;;8289926;28;19913;-66
2021/11/30 19:13:25;;;;;;;;;;;2.00;99.90;;;;;;8289031;28;20406;-67
2021/11/30 19:17:26;;;;;;;;;;;2.00;99.90;;;;;;8302487;28;19917;-67
2021/11/30 19:21:26;;;;;;;;;;;2.10;99.90;;;;;;8300778;28;19913;-66
2021/11/30 19:25:27;;;;;;;;;;;2.00;99.90;;;;;;8290002;28;19917;-66
2021/11/30 19:29:28;;;;;;;;;;;1.90;99.90;;;;;;8291528;28;19963;-67
2021/11/30 19:33:29;;;;;;;;;;;1.90;99.90;;;;;;8290647;28;19913;-67
2021/11/30 19:37:31;;;;;;;;;;;2.00;99.90;;;;;;8302846;28;19917;-66
2021/11/30 19:41:31;;;;;;;;;;;2.00;99.90;;;;;;8303056;28;19945;-67
2021/11/30 19:45:32;;;;;;;;;;;2.00;99.90;;;;;;8304954;28;19914;-67
2021/11/30 19:49:32;;;;;;;;;;;2.10;99.90;;;;;;8292850;28;20214;-67
2021/11/30 19:53:33;;;;;;;;;;;2.10;99.90;;;;;;8308117;28;19928;-67
2021/11/30 19:57:34;;;;;;;;;;;2.20;99.90;;;;;;8313219;28;19956;-67
2021/11/30 20:05:53;;;;;;;;;;;2.30;99.90;;;;;;8304802;28;20529;-68
2021/11/30 20:09:54;;;;;;;;;;;2.30;99.90;;;;;;8286415;28;19918;-67
2021/11/30 20:13:54;;;;;;;;;;;2.40;99.90;;;;;;8313204;28;20000;-66
2021/11/30 20:17:56;;;;;;;;;;;2.40;99.90;;;;;;8312375;28;19934;-68
2021/11/30 20:21:57;;;;;;;;;;;2.40;99.90;;;;;;8312531;28;19953;-67
2021/11/30 20:25:57;;;;;;;;;;;2.40;99.90;;;;;;8314014;28;19914;-67
2021/11/30 20:29:58;;;;;;;;;;;2.40;99.90;;;;;;8311510;28;19920;-67
2021/11/30 20:33:59;;;;;;;;;;;2.40;99.90;;;;;;8305695;28;19913;-67
2021/11/30 20:42:20;;;;;;;;;;;2.40;99.90;;;;;;8296036;28;19916;-66
2021/11/30 20:46:22;;;;;;;;;;;2.40;99.90;;;;;;8295592;28;19952;-68
2021/11/30 20:50:23;;;;;;;;;;;2.40;99.90;;;;;;8314860;28;19921;-67
2021/11/30 20:54:26;;;;;;;;;;;2.40;99.90;;;;;;8316172;28;20390;-66
2021/11/30 20:58:28;;;;;;;;;;;2.40;99.90;;;;;;8304929;28;19947;-66
2021/11/30 21:06:35;;;;;;;;;;;2.50;99.90;;;;;;8307797;28;20375;-66
2021/11/30 21:10:38;;;;;;;;;;;2.50;99.90;;;;;;8310846;28;19917;-65
2021/11/30 21:14:38;;;;;;;;;;;2.50;99.90;;;;;;8317535;28;19917;-66
2021/11/30 21:18:39;;;;;;;;;;;2.50;99.90;;;;;;8319694;28;19921;-67
2021/11/30 21:22:42;;;;;;;;;;;2.50;99.90;;;;;;8311642;28;19917;-66
2021/11/30 21:26:44;;;;;;;;;;;2.50;99.90;;;;;;8313073;28;19927;-66
2021/11/30 21:30:46;;;;;;;;;;;2.50;99.90;;;;;;8306616;28;19942;-67
2021/11/30 21:34:48;;;;;;;;;;;2.50;99.90;;;;;;8309055;28;19917;-66
2021/11/30 21:38:49;;;;;;;;;;;2.60;99.90;;;;;;8302470;28;19924;-66
2021/11/30 21:42:53;;;;;;;;;;;2.60;99.90;;;;;;8296052;28;20287;-65
2021/11/30 21:51:35;;;;;;;;;;;2.70;99.90;;;;;;8294703;28;20028;-65
2021/11/30 21:55:37;;;;;;;;;;;2.60;99.90;;;;;;8304719;28;19909;-65
2021/11/30 21:59:37;;;;;;;;;;;2.60;99.90;;;;;;8326123;28;19913;-65
2021/11/30 22:03:38;;;;;;;;;;;2.60;99.90;;;;;;8316674;28;20000;-65
2021/11/30 22:07:38;;;;;;;;;;;2.70;99.90;;;;;;8293608;28;19910;-66
2021/11/30 22:11:39;;;;;;;;;;;2.70;99.90;;;;;;8293467;28;20295;-65
2021/11/30 22:15:40;;;;;;;;;;;2.70;99.90;;;;;;8290667;28;19949;-65
2021/11/30 22:19:40;;;;;;;;;;;2.80;99.90;;;;;;8295073;28;19913;-65
2021/11/30 22:23:41;;;;;;;;;;;2.70;99.90;;;;;;8292810;28;20376;-65
2021/11/30 22:27:43;;;;;;;;;;;2.80;99.90;;;;;;8294703;28;19913;-65
2021/11/30 22:31:44;;;;;;;;;;;2.80;99.90;;;;;;8294618;28;19916;-64
2021/11/30 22:36:13;;;;;;;;;;;2.90;99.90;;;;;;8293949;28;19983;-65
2021/11/30 22:44:53;;;;;;;;;;;2.90;99.90;;;;;;8287704;28;19932;-64
2021/11/30 22:48:55;;;;;;;;;;;3.00;99.90;;;;;;8322167;22;19982;-67
2021/11/30 22:52:56;;;;;;;;;;;2.90;99.90;;;;;;8324854;28;19920;-66
2021/11/30 22:56:57;;;;;;;;;;;3.00;99.90;;;;;;8327794;28;19913;-67
2021/11/30 23:00:58;;;;;;;;;;;3.00;99.90;;;;;;8309769;28;20422;-67
2021/11/30 23:04:58;;;;;;;;;;;3.10;99.90;;;;;;8327177;28;19913;-66
2021/11/30 23:09:01;;;;;;;;;;;3.10;99.90;;;;;;8309664;28;19909;-66
2021/11/30 23:13:03;;;;;;;;;;;3.10;99.90;;;;;;8309820;28;19919;-66
2021/11/30 23:17:03;;;;;;;;;;;3.10;99.90;;;;;;8327502;28;19913;-66
2021/11/30 23:21:04;;;;;;;;;;;3.10;99.90;;;;;;8326890;28;19932;-66
2021/11/30 23:25:14;;;;;;;;;;;3.10;99.90;;;;;;8327467;28;19920;-66
2021/11/30 23:29:16;;;;;;;;;;;3.10;99.90;;;;;;8327115;28;20322;-66
2021/11/30 23:33:18;;;;;;;;;;;3.00;99.90;;;;;;8309106;28;19910;-66
2021/11/30 23:37:18;;;;;;;;;;;3.00;99.90;;;;;;8326633;28;20000;-67
2021/11/30 23:41:20;;;;;;;;;;;2.90;99.90;;;;;;8326748;28;19932;-66
2021/11/30 23:45:21;;;;;;;;;;;3.00;99.90;;;;;;8326855;28;19959;-66
2021/11/30 23:49:21;;;;;;;;;;;3.00;99.90;;;;;;8325822;28;19943;-66
2021/11/30 23:53:24;;;;;;;;;;;3.00;99.90;;;;;;8309195;28;19909;-66
2021/11/30 23:57:24;;;;;;;;;;;3.10;99.90;;;;;;8308209;28;20008;-66
